DA13 weather

Tinfouchy Airport
Tindouf Province, Algeria

Public forecast

Using degrees Celsius for public forecast. Weather courtesy of forecast.io.

METAR (pilot weather report)

Closest report is Tindouf Airport, 142.7 nm (264.3 km) WSW. Retrieved 2018/12/14 16:00 UTC (55 minutes ago):

DAOF 141600Z 34011KT CAVOK 25/03 Q1016

TAF (pilot weather forecast)

Forecast is more than 12 hours old.

Closest forecast is Tindouf Airport, 142.7 nm (264.3 km) WSW. Retrieved 2017/11/09 18:03 UTC (1 year ago):

TAF DAOF 091700Z 0918/1009 32010KT 9999 SCT040 BKN100 PROB30 TEMPO 0918/0921 FEW033CB